Ignacio, CO

5:25 AM MST en Febrero 28, 2017 (GMT -0700)
Durango-La Plata County | | Change Station
Aviso en curso: Winter Storm Warning

Alt 6686 ft 37.15 °N, 107.75 °W | Updated 4 minutes ago

Nieve
Nieve
31 ° F
Sensación térmica 25 ° F
N
6
Viento Variable Viento desde OSO

Hoy
Alta -- | Baja -- ° F
--% Posibilidad de precipitaciones
Ayer
Alta -- | Baja -- ° F
Precip. -- pul
Presión 29.70 pul
Visibilidad 1.5 Millas
Nubes Muy nublado 500 ft
Nublado 1000 ft
Vientos helados 25 ° F
Punto de rocío 29 ° F
Humedad 92%
Precipitaciones 0.22 pul
Espesor de la nieve No disponible.
6:42 AM 6:04 PM
Creciente, 4% visible
SPECI KDRO 281221Z AUTO 24005KT 1 1/2SM -SN BR BKN005 OVC010 M01/M02 A2970 RMK AO2 P0001 T10061017
Presión 29.70 pul
Visibilidad 1.5 Millas
Nubes Muy nublado 500 ft
Nublado 1000 ft
Vientos helados 25 ° F
Punto de rocío 29 ° F
Humedad 92%
Precipitaciones 0.22 pul
Espesor de la nieve No disponible.
6:42 AM 6:04 PM
Creciente, 4% visible
SPECI KDRO 281221Z AUTO 24005KT 1 1/2SM -SN BR BKN005 OVC010 M01/M02 A2970 RMK AO2 P0001 T10061017

Get Your Daily Forecast Email!

Thanks for signing up!

Be on the lookout for a verification email in your inbox.

You'll start receiving the daily forecast at 8 AM.

×

10-Day Weather Forecast

Almanac

Astronomía

Feb. 28, 2017 Salida Puesta
Hora real
Crepúsculo civil
Crepúsculo náutico
Crepúsculo astronómico
Luna
Horas de luz
Horas de luz
Tomorrow will be .
, % of the Moon is Illuminated

Extremos de hoy

Máximos del estado Bajos del estado

Community

WunderPhotos

Upload Photos

1,962,540 ¡fotos cargadas!

WunderBlog® & News

Nearby

Calidad del aire

  Calidad del aire Índice AQ Contaminante
Not available.

Grosos de nieve

Estación Profundido Altura

Actividad de terremotos

Ciudad Distance Mag. Tiempo y dato
Magnitud mínima muestra es 2,5.

Temperaturas de aguas costeras

Lugar Temperatura

Stations

Estaciones meteorológicas cercanas

Ubicación de la estación Temp. Vientos helados Punto de rocío Humedad Viento Precip. Alt Actualizado Tipo
                   

Watches & Warnings

Winter Storm Warning
Issued: 3:24 AM MST Feb. 28, 2017 – National Weather Service

... Winter Storm Warning remains in effect until 5 PM MST this
afternoon...

* locations include... Durango, Bayfield, Ignacio, and Pagosa
Springs.

* Timing... period of snow, mixed with rain at times, will continue
through this afternoon.

* Snow accumulation... 6 to 12 inches.

* Winds... southwest 5 to 15 mph with gusts up to 30 mph.

* Visibility... less than one mile at times in moderate to heavy
snow.

* Impacts... heavy snow will make travelling difficult at times
across the area.

Precautionary/preparedness actions...

A Winter Storm Warning means significant amounts of snow are
expected or occurring. Strong winds and blowing snow are also
possible. This will make travel very hazardous or impossible.